createdAt,value
2022-10-05T00:01:01.295Z,75.36
2022-10-05T00:06:11.327Z,75.59
2022-10-05T00:11:15.262Z,75.47
2022-10-05T00:16:20.799Z,75.80
2022-10-05T00:21:27.032Z,75.46
2022-10-05T00:26:33.271Z,75.03
2022-10-05T00:31:36.626Z,75.07
2022-10-05T00:36:40.460Z,75.18
2022-10-05T00:42:18.587Z,75.15
2022-10-05T00:47:30.104Z,76.02
2022-10-05T00:52:50.399Z,76.54
2022-10-05T00:58:11.324Z,76.32
2022-10-05T01:03:17.776Z,76.60
2022-10-05T01:08:30.347Z,75.99
2022-10-05T01:13:49.634Z,75.88
2022-10-05T01:18:52.432Z,75.47
2022-10-05T01:24:26.271Z,75.22
2022-10-05T01:29:44.013Z,74.92
2022-10-05T01:35:06.984Z,75.80
2022-10-05T01:40:31.503Z,75.11
2022-10-05T01:45:53.275Z,76.01
2022-10-05T01:51:30.971Z,75.80
2022-10-05T01:56:44.179Z,76.00
2022-10-05T02:02:11.445Z,75.53
2022-10-05T02:07:28.983Z,76.25
2022-10-05T02:12:37.676Z,76.52
2022-10-05T02:18:06.999Z,76.66
2022-10-05T02:23:14.845Z,75.79
2022-10-05T02:28:28.346Z,75.38
2022-10-05T02:33:33.176Z,75.53
2022-10-05T02:38:48.207Z,76.45
2022-10-05T02:44:02.066Z,76.07
2022-10-05T02:49:13.880Z,75.49
2022-10-05T02:54:40.279Z,75.69
2022-10-05T03:00:09.464Z,76.54
2022-10-05T03:05:58.954Z,75.99
2022-10-05T03:11:34.128Z,76.23
2022-10-05T03:16:50.321Z,75.72
2022-10-05T03:21:55.898Z,75.39
2022-10-05T03:27:04.738Z,75.64
2022-10-05T03:32:30.069Z,75.89
2022-10-05T03:37:48.106Z,75.97
2022-10-05T03:43:26.052Z,76.40
2022-10-05T03:48:50.154Z,76.47
2022-10-05T03:54:05.225Z,76.49
2022-10-05T03:59:19.104Z,76.75
2022-10-05T04:04:48.547Z,77.05
2022-10-05T04:09:54.809Z,77.09
2022-10-05T04:15:02.532Z,77.38
2022-10-05T04:20:29.376Z,77.22
2022-10-05T04:25:46.006Z,77.50
2022-10-05T04:30:52.399Z,77.57
2022-10-05T04:36:01.404Z,77.69
2022-10-05T04:41:16.549Z,78.16
2022-10-05T04:47:11.113Z,77.82
2022-10-05T04:52:13.867Z,77.80
2022-10-05T04:57:23.850Z,77.98
2022-10-05T05:02:45.587Z,78.12
2022-10-05T05:08:11.011Z,78.56
2022-10-05T05:13:38.901Z,78.31
2022-10-05T05:18:56.959Z,78.32
2022-10-05T05:24:27.410Z,77.98
2022-10-05T05:30:08.715Z,77.81
2022-10-05T05:35:32.201Z,77.70
2022-10-05T05:40:42.374Z,77.65
2022-10-05T05:45:59.210Z,77.54
2022-10-05T05:51:09.344Z,77.36
2022-10-05T05:56:24.380Z,77.10
2022-10-05T06:01:35.001Z,76.72
2022-10-05T06:06:42.644Z,76.31
2022-10-05T06:11:53.457Z,76.00
2022-10-05T06:17:29.233Z,75.56
2022-10-05T06:22:43.709Z,75.32
2022-10-05T06:28:13.619Z,75.00
2022-10-05T06:33:56.586Z,74.47
2022-10-05T06:39:14.751Z,74.17
2022-10-05T06:44:39.979Z,74.09
2022-10-05T06:49:50.356Z,73.82
2022-10-05T06:55:14.162Z,73.54
2022-10-05T07:00:23.474Z,73.06
2022-10-05T07:05:44.945Z,72.37
2022-10-05T07:11:15.809Z,70.28
2022-10-05T07:16:30.571Z,66.53
2022-10-05T07:21:50.165Z,65.17
2022-10-05T07:27:18.377Z,64.78
2022-10-05T07:32:47.804Z,64.72
2022-10-05T07:37:57.185Z,64.72
2022-10-05T07:43:14.481Z,64.75
2022-10-05T07:48:19.789Z,64.97
2022-10-05T07:53:40.278Z,63.97
2022-10-05T07:58:57.108Z,62.73
2022-10-05T08:04:27.772Z,61.85
2022-10-05T08:09:55.835Z,61.67
2022-10-05T08:15:23.720Z,61.34
2022-10-05T08:20:33.317Z,61.48
2022-10-05T08:25:59.459Z,61.83
2022-10-05T08:31:21.695Z,62.33
2022-10-05T08:36:44.059Z,62.90
2022-10-05T08:42:11.247Z,62.85
2022-10-05T08:47:48.256Z,61.84
2022-10-05T08:53:36.520Z,61.50
2022-10-05T08:58:49.766Z,62.02
2022-10-05T09:04:25.645Z,62.71
2022-10-05T09:10:03.159Z,63.46
2022-10-05T09:15:26.286Z,64.07
2022-10-05T09:20:37.029Z,64.16
2022-10-05T09:25:59.795Z,64.35
2022-10-05T09:31:37.722Z,64.41
2022-10-05T09:36:46.565Z,64.41
2022-10-05T09:41:52.145Z,64.25
2022-10-05T09:47:12.544Z,63.91
2022-10-05T09:52:19.182Z,63.58
2022-10-05T09:57:53.359Z,63.39
2022-10-05T10:03:02.565Z,63.09
2022-10-05T10:08:39.732Z,62.60
2022-10-05T10:14:04.654Z,61.88
2022-10-05T10:19:37.971Z,61.27
2022-10-05T10:24:43.860Z,60.51
2022-10-05T10:30:11.122Z,60.06
2022-10-05T10:35:36.774Z,59.64
2022-10-05T10:40:57.170Z,60.17
2022-10-05T10:45:59.982Z,61.34
2022-10-05T10:51:12.496Z,62.14
2022-10-05T10:56:18.249Z,61.76
2022-10-05T11:01:30.324Z,60.21
2022-10-05T11:06:48.121Z,59.63
2022-10-05T11:12:22.122Z,60.83
2022-10-05T11:17:33.626Z,61.70
2022-10-05T11:22:46.783Z,62.28
2022-10-05T11:28:09.715Z,61.56
2022-10-05T11:33:32.273Z,60.29
2022-10-05T11:38:46.433Z,59.63
2022-10-05T11:43:52.310Z,60.20
2022-10-05T11:49:36.559Z,61.53
2022-10-05T11:55:10.875Z,62.35
2022-10-05T12:00:23.965Z,60.78
2022-10-05T12:05:48.578Z,58.96
2022-10-05T12:11:10.222Z,59.72
2022-10-05T12:16:27.013Z,60.67
2022-10-05T12:21:52.586Z,61.56
2022-10-05T12:27:13.922Z,62.36
2022-10-05T12:32:34.929Z,61.75
2022-10-05T12:37:53.418Z,60.36
2022-10-05T12:43:02.062Z,59.89
2022-10-05T12:48:23.608Z,59.49
2022-10-05T12:54:05.415Z,60.44
2022-10-05T12:59:19.371Z,61.31
2022-10-05T13:04:31.151Z,61.77
2022-10-05T13:09:48.844Z,62.52
2022-10-05T13:15:20.932Z,60.98
2022-10-05T13:20:39.190Z,59.69
2022-10-05T13:25:53.746Z,59.70
2022-10-05T13:31:20.139Z,61.13
2022-10-05T13:36:31.437Z,62.23
2022-10-05T13:42:19.604Z,62.09
2022-10-05T13:47:40.840Z,60.66
2022-10-05T13:52:58.578Z,60.05
2022-10-05T13:58:20.022Z,59.68
2022-10-05T14:03:38.179Z,59.68
2022-10-05T14:08:54.295Z,59.77
2022-10-05T14:14:10.408Z,59.42
2022-10-05T14:19:22.131Z,61.35
2022-10-05T14:24:50.471Z,62.69
2022-10-05T14:30:08.403Z,62.19
2022-10-05T14:35:13.027Z,61.90
2022-10-05T14:40:24.413Z,61.95
2022-10-05T14:45:33.539Z,62.01
2022-10-05T14:50:57.678Z,61.81
2022-10-05T14:56:29.759Z,61.66
2022-10-05T15:01:36.106Z,61.82
2022-10-05T15:07:04.328Z,62.12
2022-10-05T15:12:07.674Z,62.34
2022-10-05T15:17:31.227Z,62.74
2022-10-05T15:22:40.808Z,63.33
2022-10-05T15:27:59.624Z,63.48
2022-10-05T15:33:25.533Z,63.58
2022-10-05T15:39:00.459Z,63.56
2022-10-05T15:44:28.576Z,64.31
2022-10-05T15:49:43.574Z,64.63
2022-10-05T15:55:14.628Z,65.30
2022-10-05T16:00:20.054Z,65.30
2022-10-05T16:05:56.892Z,65.41
2022-10-05T16:11:01.138Z,65.78
2022-10-05T16:16:16.548Z,65.65
2022-10-05T16:21:22.500Z,65.86
2022-10-05T16:26:51.110Z,66.45
2022-10-05T16:32:16.437Z,66.79
2022-10-05T16:37:32.243Z,67.80
2022-10-05T16:42:42.199Z,68.16
2022-10-05T16:48:00.579Z,68.42
2022-10-05T16:53:18.027Z,69.05
2022-10-05T16:58:27.444Z,68.25
2022-10-05T17:03:42.478Z,68.56
2022-10-05T17:08:54.593Z,69.28
2022-10-05T17:14:29.750Z,69.34
2022-10-05T17:19:38.292Z,69.09
2022-10-05T17:25:09.154Z,69.89
2022-10-05T17:31:00.826Z,70.03
2022-10-05T17:36:08.717Z,70.90
2022-10-05T17:41:15.568Z,70.37
2022-10-05T17:46:38.784Z,68.88
2022-10-05T17:52:00.232Z,70.09
2022-10-05T17:57:03.032Z,69.71
2022-10-05T18:02:26.974Z,70.78
2022-10-05T18:07:32.156Z,70.74
2022-10-05T18:12:45.961Z,70.13
2022-10-05T18:17:54.892Z,71.37
2022-10-05T18:23:06.198Z,71.35
2022-10-05T18:28:12.350Z,71.40
2022-10-05T18:33:47.439Z,71.53
2022-10-05T18:38:55.483Z,70.87
2022-10-05T18:43:58.262Z,72.24
2022-10-05T18:49:25.742Z,71.95
2022-10-05T18:54:54.885Z,73.00
2022-10-05T19:00:14.332Z,73.44
2022-10-05T19:05:47.612Z,73.36
2022-10-05T19:10:56.636Z,74.12
2022-10-05T19:16:18.524Z,74.71
2022-10-05T19:21:50.961Z,74.66
2022-10-05T19:27:32.061Z,75.55
2022-10-05T19:32:46.842Z,77.15
2022-10-05T19:38:02.099Z,76.78
2022-10-05T19:43:29.846Z,74.84
2022-10-05T19:48:53.045Z,73.97
2022-10-05T19:54:25.291Z,74.67
2022-10-05T19:59:32.861Z,75.11
2022-10-05T20:04:43.411Z,75.45
2022-10-05T20:09:54.302Z,74.51
2022-10-05T20:15:26.780Z,74.62
2022-10-05T20:20:49.286Z,74.69
2022-10-05T20:26:11.606Z,74.94
2022-10-05T20:31:14.807Z,75.19
2022-10-05T20:36:17.821Z,75.24
2022-10-05T20:41:20.623Z,75.38
2022-10-05T20:46:23.613Z,75.64
2022-10-05T20:51:29.074Z,75.27
2022-10-05T20:56:34.194Z,75.26
2022-10-05T21:01:37.156Z,75.73
2022-10-05T21:07:07.404Z,75.44
2022-10-05T21:12:11.430Z,75.37
2022-10-05T21:17:14.695Z,75.58
2022-10-05T21:22:17.548Z,75.58
2022-10-05T21:27:20.449Z,75.84
2022-10-05T21:32:23.354Z,76.55
2022-10-05T21:37:26.157Z,76.67
2022-10-05T21:42:29.262Z,76.64
2022-10-05T21:47:32.373Z,76.47
2022-10-05T21:52:35.992Z,76.17
2022-10-05T21:57:39.229Z,76.08
2022-10-05T22:02:42.417Z,75.89
2022-10-05T22:07:45.326Z,75.77
2022-10-05T22:12:48.631Z,75.98
2022-10-05T22:17:51.542Z,75.95
2022-10-05T22:22:54.442Z,76.04
2022-10-05T22:27:57.378Z,76.02
2022-10-05T22:33:00.351Z,76.26
2022-10-05T22:38:04.401Z,76.08
2022-10-05T22:43:07.801Z,76.17
2022-10-05T22:48:10.712Z,76.21
2022-10-05T22:53:14.296Z,76.18
2022-10-05T22:58:17.226Z,76.02
2022-10-05T23:03:20.129Z,76.11
2022-10-05T23:08:23.035Z,76.25
2022-10-05T23:13:25.939Z,76.15
2022-10-05T23:18:29.086Z,76.32
2022-10-05T23:23:40.961Z,76.42
2022-10-05T23:28:47.356Z,76.80
2022-10-05T23:33:51.102Z,76.80
2022-10-05T23:38:54.703Z,76.86
2022-10-05T23:43:57.597Z,76.64
2022-10-05T23:49:00.497Z,76.36
2022-10-05T23:54:03.402Z,76.32
2022-10-05T23:59:06.307Z,76.36
